Time;durP1;ratioP1;P1;durP2;ratioP2;P2;SDS_P1;SDS_P2;PMS_P1;PMS_P2;Temp;Humidity;BMP_temperature;BMP_pressure;BME280_temperature;BME280_humidity;BME280_pressure;Samples;Min_cycle;Max_cycle;Signal;HPM_P1;HPM_P2
2021/10/02 00:33:58;;;;;;;10.30;6.33;;;10.30;99.90;;;;;;4988140;28;20427;-59
2021/10/02 00:46:52;;;;;;;14.07;6.50;;;10.30;99.90;;;;;;4991976;28;20217;-58
2021/10/02 00:49:18;;;;;;;8.13;5.90;;;10.30;99.90;;;;;;4994546;28;20471;-58
2021/10/02 00:51:45;;;;;;;13.00;7.17;;;10.30;99.90;;;;;;4992313;28;20432;-60
2021/10/02 00:54:11;;;;;;;12.20;7.07;;;10.30;99.90;;;;;;4989267;28;20404;-59
2021/10/02 00:56:36;;;;;;;8.40;6.13;;;10.20;99.90;;;;;;4956667;28;20440;-59
2021/10/02 00:59:02;;;;;;;9.50;6.20;;;10.20;99.90;;;;;;4989785;28;20444;-59
2021/10/02 01:01:58;;;;;;;9.10;5.60;;;10.20;99.90;;;;;;4989030;28;20177;-59
2021/10/02 01:04:51;;;;;;;7.63;6.27;;;10.20;99.90;;;;;;4988388;28;20451;-59
2021/10/02 01:07:32;;;;;;;7.17;5.27;;;10.10;99.90;;;;;;4988881;28;20432;-58
2021/10/02 01:10:23;;;;;;;9.37;6.70;;;10.10;99.90;;;;;;4983336;28;20494;-59
2021/10/02 01:13:21;;;;;;;9.90;6.30;;;10.10;99.90;;;;;;4975234;28;20421;-59
2021/10/02 01:15:57;;;;;;;7.87;5.50;;;10.10;99.90;;;;;;4967590;28;20968;-59
2021/10/02 01:18:32;;;;;;;8.73;6.20;;;10.10;99.90;;;;;;4991531;28;20440;-59
2021/10/02 01:21:15;;;;;;;6.70;5.57;;;10.10;99.90;;;;;;4990157;28;20435;-59
2021/10/02 01:24:02;;;;;;;8.73;6.17;;;10.10;99.90;;;;;;4982564;28;20504;-59
2021/10/02 01:26:38;;;;;;;9.27;6.40;;;10.10;99.90;;;;;;4984412;28;20498;-58
2021/10/02 01:29:07;;;;;;;9.23;6.23;;;10.10;99.90;;;;;;4998263;28;20483;-60
2021/10/02 01:31:47;;;;;;;9.00;5.83;;;10.10;99.90;;;;;;4985030;28;20494;-58
2021/10/02 01:34:34;;;;;;;10.00;5.90;;;10.10;99.90;;;;;;4968148;28;20510;-58
2021/10/02 01:48:15;;;;;;;8.40;5.70;;;10.10;99.90;;;;;;4988547;28;20462;-59
2021/10/02 01:50:42;;;;;;;7.77;5.53;;;10.00;99.90;;;;;;4986030;28;20495;-59
2021/10/02 01:53:09;;;;;;;11.70;6.50;;;10.00;99.90;;;;;;4970944;28;20983;-59
2021/10/02 01:55:37;;;;;;;8.17;5.73;;;10.00;99.90;;;;;;4981759;28;20501;-59
2021/10/02 01:58:08;;;;;;;14.00;7.37;;;10.00;99.90;;;;;;4989642;28;20779;-59
2021/10/02 02:00:39;;;;;;;7.67;6.00;;;10.00;99.90;;;;;;4970458;28;20855;-59
2021/10/02 02:03:06;;;;;;;8.07;5.60;;;10.00;99.90;;;;;;4988756;28;20443;-59
2021/10/02 02:05:34;;;;;;;9.77;6.13;;;10.00;99.90;;;;;;4966584;28;20858;-59
2021/10/02 02:08:03;;;;;;;10.43;5.60;;;9.90;99.90;;;;;;4990019;28;20452;-57
2021/10/02 02:10:31;;;;;;;10.13;5.90;;;9.90;99.90;;;;;;5006341;28;20553;-59
2021/10/02 02:13:00;;;;;;;12.30;6.77;;;9.90;99.90;;;;;;4988893;28;20867;-59
2021/10/02 02:15:31;;;;;;;7.80;5.87;;;9.90;99.90;;;;;;4971750;28;20742;-59
2021/10/02 02:18:11;;;;;;;6.67;5.50;;;9.80;99.90;;;;;;4994309;28;20570;-59
2021/10/02 02:20:48;;;;;;;8.63;5.90;;;9.80;99.90;;;;;;4989241;28;20850;-59
2021/10/02 02:23:14;;;;;;;7.33;5.90;;;9.80;99.90;;;;;;4974021;28;20433;-60
2021/10/02 02:25:40;;;;;;;8.40;6.53;;;9.80;99.90;;;;;;4986270;28;20460;-58
2021/10/02 02:28:08;;;;;;;8.17;6.00;;;9.80;99.90;;;;;;4990437;28;20479;-58
2021/10/02 02:30:35;;;;;;;10.60;6.07;;;9.70;99.90;;;;;;4988638;28;20459;-58
2021/10/02 02:33:02;;;;;;;8.60;5.77;;;9.70;99.90;;;;;;4973504;28;20475;-58
2021/10/02 02:35:28;;;;;;;7.57;5.80;;;9.70;99.90;;;;;;4979626;28;20426;-60
2021/10/02 02:37:55;;;;;;;12.40;6.30;;;9.70;99.90;;;;;;4972056;28;20460;-59
2021/10/02 02:40:22;;;;;;;7.67;5.50;;;9.60;99.90;;;;;;4987351;28;20181;-59
2021/10/02 02:42:48;;;;;;;9.67;5.90;;;9.60;99.90;;;;;;4986957;28;20444;-58
2021/10/02 02:45:15;;;;;;;8.23;6.00;;;9.60;99.90;;;;;;4988129;28;20531;-58
2021/10/02 02:47:49;;;;;;;9.20;5.73;;;9.60;99.90;;;;;;4984414;28;20429;-59
2021/10/02 02:50:20;;;;;;;10.03;6.67;;;9.60;99.90;;;;;;4971875;28;20467;-59
2021/10/02 02:53:05;;;;;;;10.10;6.10;;;9.50;99.90;;;;;;4989081;28;20867;-58
2021/10/02 02:55:38;;;;;;;8.33;5.90;;;9.50;99.90;;;;;;5000240;28;20423;-59
2021/10/02 02:58:06;;;;;;;9.70;6.37;;;9.50;99.90;;;;;;4990017;28;20480;-59
2021/10/02 03:00:36;;;;;;;6.27;5.43;;;9.50;99.90;;;;;;4989201;28;20440;-59
2021/10/02 03:03:10;;;;;;;6.23;5.20;;;9.40;99.90;;;;;;4990421;28;20515;-59
2021/10/02 03:05:39;;;;;;;8.50;6.00;;;9.40;99.90;;;;;;4970723;28;20814;-60
2021/10/02 03:08:12;;;;;;;10.23;6.50;;;9.40;99.90;;;;;;4989031;28;20479;-59
2021/10/02 03:10:41;;;;;;;11.93;6.07;;;9.30;99.90;;;;;;4971323;28;20472;-59
2021/10/02 03:13:11;;;;;;;9.30;5.17;;;9.30;99.90;;;;;;4988400;28;20431;-59
2021/10/02 03:15:39;;;;;;;10.63;5.40;;;9.30;99.90;;;;;;4996045;28;20522;-58
2021/10/02 03:18:07;;;;;;;12.07;5.27;;;9.20;99.90;;;;;;4973305;28;20533;-59
2021/10/02 03:20:34;;;;;;;7.40;5.27;;;9.20;99.90;;;;;;4975962;28;20428;-59
2021/10/02 03:23:01;;;;;;;10.73;5.30;;;9.20;99.90;;;;;;4991353;28;20436;-59
2021/10/02 03:25:28;;;;;;;11.57;5.90;;;9.10;99.90;;;;;;4986851;28;20468;-58
2021/10/02 03:27:56;;;;;;;11.30;6.40;;;9.10;99.90;;;;;;4984374;28;20464;-59
2021/10/02 03:30:25;;;;;;;7.13;5.60;;;9.10;99.90;;;;;;4996599;28;20814;-58
2021/10/02 03:32:52;;;;;;;9.73;5.67;;;9.10;99.90;;;;;;4990361;28;20436;-58
2021/10/02 03:35:22;;;;;;;10.80;6.03;;;9.10;99.90;;;;;;4993962;28;20416;-59
2021/10/02 03:37:49;;;;;;;5.93;5.13;;;9.10;99.90;;;;;;4987532;28;20476;-60
2021/10/02 03:40:19;;;;;;;10.80;5.60;;;9.10;99.90;;;;;;4991011;28;20928;-59
2021/10/02 03:42:56;;;;;;;8.60;5.70;;;9.10;99.90;;;;;;4990921;28;20464;-59
2021/10/02 03:45:24;;;;;;;13.10;8.37;;;9.10;99.90;;;;;;4973660;28;20442;-59
2021/10/02 03:47:50;;;;;;;14.67;7.00;;;9.10;99.90;;;;;;4992262;28;20467;-59
2021/10/02 03:50:17;;;;;;;18.10;6.43;;;9.20;99.90;;;;;;4978253;28;20867;-58
2021/10/02 03:52:43;;;;;;;22.17;6.10;;;9.20;99.90;;;;;;4974154;28;20444;-59
2021/10/02 03:55:11;;;;;;;34.43;6.60;;;9.20;99.90;;;;;;4992671;28;20423;-58
2021/10/02 03:57:36;;;;;;;22.60;6.80;;;9.20;99.90;;;;;;4981984;28;20468;-59
2021/10/02 04:00:05;;;;;;;16.50;6.40;;;9.10;99.90;;;;;;4986334;28;21114;-59
2021/10/02 04:02:31;;;;;;;10.33;6.50;;;9.10;99.90;;;;;;4988115;28;20208;-59
2021/10/02 04:04:56;;;;;;;12.50;6.80;;;9.10;99.90;;;;;;4974263;28;20428;-59
2021/10/02 04:07:22;;;;;;;47.80;6.87;;;9.10;99.90;;;;;;4968556;28;20271;-59
2021/10/02 04:09:48;;;;;;;35.97;6.97;;;9.10;99.90;;;;;;4992149;28;20262;-59
2021/10/02 04:12:13;;;;;;;21.90;7.13;;;9.00;99.90;;;;;;4989314;28;20256;-58
2021/10/02 04:14:39;;;;;;;41.73;6.90;;;9.00;99.90;;;;;;4973974;28;20177;-58
2021/10/02 04:17:05;;;;;;;21.93;7.67;;;9.00;99.90;;;;;;4991395;28;20192;-59
2021/10/02 04:19:31;;;;;;;13.33;6.87;;;9.00;99.90;;;;;;4998962;28;20459;-59
2021/10/02 04:21:57;;;;;;;31.23;7.83;;;9.00;99.90;;;;;;4973847;28;20181;-59
2021/10/02 04:24:24;;;;;;;26.63;6.73;;;9.00;99.90;;;;;;4991909;28;20478;-59
2021/10/02 04:26:50;;;;;;;11.13;6.47;;;9.00;99.90;;;;;;4989995;28;20177;-59
2021/10/02 04:29:16;;;;;;;24.80;6.90;;;9.00;99.90;;;;;;4988879;28;20467;-59
2021/10/02 04:31:41;;;;;;;16.87;5.50;;;9.00;99.90;;;;;;4991040;28;20165;-59
2021/10/02 04:34:07;;;;;;;24.13;6.60;;;9.00;99.90;;;;;;4981508;28;20189;-60
2021/10/02 04:36:33;;;;;;;17.33;5.93;;;9.00;99.90;;;;;;4955333;28;20263;-60
2021/10/02 04:38:59;;;;;;;12.97;6.23;;;9.00;99.90;;;;;;4992346;28;20189;-59
2021/10/02 04:41:25;;;;;;;14.03;5.70;;;9.00;99.90;;;;;;5007825;28;20573;-59
2021/10/02 04:43:51;;;;;;;30.33;6.07;;;9.00;99.90;;;;;;4987289;28;20428;-58
2021/10/02 04:46:18;;;;;;;8.83;5.80;;;9.00;99.90;;;;;;4990605;28;20209;-59
2021/10/02 04:48:45;;;;;;;22.93;6.30;;;9.00;99.90;;;;;;4990507;28;20208;-59
2021/10/02 04:51:10;;;;;;;9.40;5.70;;;9.00;99.90;;;;;;4989963;28;20456;-59
2021/10/02 04:53:37;;;;;;;13.27;6.73;;;9.00;99.90;;;;;;4990484;28;21060;-59
2021/10/02 04:56:06;;;;;;;10.67;7.37;;;9.00;99.90;;;;;;4990799;28;20174;-59
2021/10/02 04:58:32;;;;;;;10.17;6.13;;;9.00;99.90;;;;;;4989540;28;20494;-58
2021/10/02 05:00:58;;;;;;;8.30;5.23;;;8.90;99.90;;;;;;4987942;28;20440;-59
2021/10/02 05:03:24;;;;;;;9.07;5.90;;;9.00;99.90;;;;;;4990901;28;20883;-58
2021/10/02 05:05:51;;;;;;;8.00;5.50;;;9.00;99.90;;;;;;4983470;28;20511;-59
2021/10/02 05:08:17;;;;;;;9.13;5.50;;;9.00;99.90;;;;;;4982317;28;20456;-59
2021/10/02 05:10:43;;;;;;;5.90;5.17;;;9.00;99.90;;;;;;4986915;28;20979;-59
2021/10/02 05:13:09;;;;;;;7.20;5.87;;;9.00;99.90;;;;;;4987381;28;20512;-59
2021/10/02 05:15:35;;;;;;;5.70;5.03;;;9.00;99.90;;;;;;4973954;28;20508;-60
2021/10/02 05:18:01;;;;;;;9.57;5.37;;;9.00;99.90;;;;;;4974347;28;20185;-60
2021/10/02 05:20:28;;;;;;;10.20;5.80;;;9.00;99.90;;;;;;4998489;28;20192;-60
2021/10/02 05:22:55;;;;;;;9.63;5.77;;;9.00;99.90;;;;;;4999442;28;20507;-59
2021/10/02 05:25:20;;;;;;;9.87;6.70;;;9.00;99.90;;;;;;4989779;28;20431;-59
2021/10/02 05:27:46;;;;;;;8.13;6.37;;;9.00;99.90;;;;;;4989294;28;20452;-60
2021/10/02 05:30:12;;;;;;;10.30;6.27;;;9.00;99.90;;;;;;4989256;28;20219;-60
2021/10/02 05:32:37;;;;;;;8.37;5.40;;;9.00;99.90;;;;;;4970172;28;20173;-60
2021/10/02 05:35:03;;;;;;;15.90;5.87;;;9.00;99.90;;;;;;4964081;28;20185;-60
2021/10/02 05:37:29;;;;;;;12.10;6.27;;;9.00;99.90;;;;;;4983138;28;20178;-61
2021/10/02 05:39:54;;;;;;;19.97;6.43;;;9.00;99.90;;;;;;4986535;28;21015;-60
2021/10/02 05:42:20;;;;;;;7.87;5.90;;;9.00;99.90;;;;;;4984452;28;20265;-61
2021/10/02 05:44:46;;;;;;;12.93;5.90;;;9.00;99.90;;;;;;4984543;28;20183;-61
2021/10/02 05:47:11;;;;;;;14.80;5.43;;;9.00;99.90;;;;;;4977352;28;20257;-62
2021/10/02 05:49:37;;;;;;;21.50;6.13;;;9.00;99.90;;;;;;4960298;28;20292;-60
2021/10/02 05:52:04;;;;;;;14.80;5.90;;;9.00;99.90;;;;;;4975105;28;22353;-61
2021/10/02 05:54:29;;;;;;;12.50;6.30;;;9.00;99.90;;;;;;4980254;28;20173;-61
2021/10/02 05:56:55;;;;;;;27.83;7.50;;;9.00;99.90;;;;;;4983828;28;20469;-60
2021/10/02 05:59:21;;;;;;;11.00;5.93;;;9.00;99.90;;;;;;4983153;28;20550;-60
2021/10/02 06:01:46;;;;;;;12.97;6.63;;;9.00;99.90;;;;;;4964641;28;20208;-61
2021/10/02 06:04:12;;;;;;;10.80;6.83;;;9.00;99.90;;;;;;4973667;28;20751;-59
2021/10/02 06:06:37;;;;;;;29.30;7.33;;;9.00;99.90;;;;;;4990273;28;20232;-60
2021/10/02 06:09:03;;;;;;;10.03;6.20;;;9.10;99.90;;;;;;4986038;28;20693;-59
2021/10/02 06:11:29;;;;;;;9.20;6.20;;;9.10;99.90;;;;;;4983442;28;20223;-60
2021/10/02 06:13:57;;;;;;;8.43;6.00;;;9.10;99.90;;;;;;4969112;28;20189;-60
2021/10/02 06:16:23;;;;;;;14.00;6.23;;;9.20;99.90;;;;;;4988551;28;20165;-60
2021/10/02 06:18:49;;;;;;;23.60;7.73;;;9.20;99.90;;;;;;4983626;28;20799;-60
2021/10/02 06:21:14;;;;;;;20.20;7.90;;;9.20;99.90;;;;;;4964631;28;20173;-60
2021/10/02 06:23:41;;;;;;;21.97;6.30;;;9.20;99.90;;;;;;4984726;28;20254;-61
2021/10/02 06:26:07;;;;;;;18.50;6.63;;;9.20;99.90;;;;;;4991113;28;20203;-61
2021/10/02 06:28:34;;;;;;;10.17;6.50;;;9.20;99.90;;;;;;4979965;28;20980;-64
2021/10/02 06:31:00;;;;;;;14.17;7.10;;;9.20;99.90;;;;;;4979388;28;20283;-60
2021/10/02 06:33:26;;;;;;;9.70;5.70;;;9.20;99.90;;;;;;4984988;28;20433;-60
2021/10/02 06:35:52;;;;;;;9.10;6.40;;;9.30;99.90;;;;;;4982235;28;20443;-61
2021/10/02 06:38:18;;;;;;;13.53;5.90;;;9.30;99.90;;;;;;4983696;28;20452;-61
2021/10/02 06:40:43;;;;;;;11.27;6.37;;;9.40;99.90;;;;;;4982153;28;20229;-61
2021/10/02 06:43:10;;;;;;;8.20;5.67;;;9.40;99.90;;;;;;4980469;28;20233;-61
2021/10/02 06:45:36;;;;;;;7.73;5.30;;;9.50;99.90;;;;;;4961652;28;20181;-61
2021/10/02 06:48:03;;;;;;;13.10;5.87;;;9.50;99.90;;;;;;4981512;28;20492;-60
2021/10/02 06:50:29;;;;;;;7.97;6.20;;;9.50;99.90;;;;;;4982454;28;20995;-61
2021/10/02 06:52:55;;;;;;;8.67;5.83;;;9.50;99.90;;;;;;4983551;28;21011;-60
2021/10/02 06:55:22;;;;;;;12.50;5.30;;;9.50;99.90;;;;;;4988261;28;20432;-61
2021/10/02 06:57:47;;;;;;;11.50;5.70;;;9.50;99.90;;;;;;4988725;28;20736;-60
2021/10/02 07:00:13;;;;;;;12.90;5.50;;;9.50;99.90;;;;;;4986917;28;20432;-61
2021/10/02 07:02:43;;;;;;;6.60;5.47;;;9.60;99.90;;;;;;4985487;28;20177;-60
2021/10/02 07:05:11;;;;;;;7.63;5.63;;;9.60;99.90;;;;;;4978695;28;20963;-62
2021/10/02 07:07:37;;;;;;;11.47;6.00;;;9.60;99.90;;;;;;4977927;28;20979;-60
2021/10/02 07:10:04;;;;;;;7.80;5.80;;;9.70;99.90;;;;;;4978665;28;20551;-61
2021/10/02 07:12:30;;;;;;;8.80;5.80;;;9.70;99.90;;;;;;4983374;28;20816;-61
2021/10/02 07:14:56;;;;;;;7.73;5.93;;;9.80;99.90;;;;;;4983996;28;21337;-61
2021/10/02 07:17:21;;;;;;;12.50;6.30;;;9.80;99.90;;;;;;4978567;28;20189;-60
2021/10/02 07:19:47;;;;;;;6.40;5.00;;;9.90;99.90;;;;;;4963911;28;20196;-59
2021/10/02 07:22:14;;;;;;;12.87;6.63;;;10.00;99.90;;;;;;4981329;28;20537;-59
2021/10/02 07:24:39;;;;;;;12.00;6.87;;;10.10;99.90;;;;;;4981641;28;20604;-59
2021/10/02 07:27:05;;;;;;;14.63;7.17;;;10.10;99.90;;;;;;4977966;28;20432;-60
2021/10/02 07:29:31;;;;;;;11.10;6.90;;;10.20;99.90;;;;;;4982518;28;20201;-60
2021/10/02 07:31:57;;;;;;;16.13;7.63;;;10.20;99.90;;;;;;4964666;28;20268;-60
2021/10/02 07:34:23;;;;;;;12.00;7.00;;;10.20;99.90;;;;;;4974414;28;20432;-60
2021/10/02 07:36:49;;;;;;;9.57;6.53;;;10.20;99.90;;;;;;4980937;28;21236;-61
2021/10/02 07:39:15;;;;;;;10.03;6.73;;;10.20;99.90;;;;;;4978791;28;20205;-62
2021/10/02 07:41:44;;;;;;;8.40;6.40;;;10.20;99.90;;;;;;4988267;28;20436;-60
2021/10/02 07:44:12;;;;;;;10.40;6.30;;;10.20;99.90;;;;;;4967973;28;20431;-61
2021/10/02 07:46:42;;;;;;;9.00;6.60;;;10.20;99.90;;;;;;4968055;28;21073;-60
2021/10/02 07:49:10;;;;;;;13.17;7.30;;;10.30;99.90;;;;;;4980964;28;20487;-59
2021/10/02 07:51:36;;;;;;;10.27;6.43;;;10.20;99.90;;;;;;4991245;28;20519;-60
2021/10/02 07:54:03;;;;;;;9.90;6.40;;;10.30;99.90;;;;;;4988290;28;20515;-59
2021/10/02 07:56:29;;;;;;;9.93;6.93;;;10.30;99.90;;;;;;4989718;28;20174;-60
2021/10/02 07:58:59;;;;;;;10.50;7.07;;;10.30;99.90;;;;;;4984758;28;20498;-61
2021/10/02 08:01:28;;;;;;;9.70;7.20;;;10.30;99.90;;;;;;4985780;28;20490;-62
2021/10/02 08:03:55;;;;;;;8.60;6.43;;;10.40;99.90;;;;;;4981473;28;20428;-58
2021/10/02 08:06:22;;;;;;;9.23;6.67;;;10.50;99.90;;;;;;4987500;28;20975;-58
2021/10/02 08:08:49;;;;;;;10.00;7.27;;;10.60;99.90;;;;;;4980619;28;20449;-58
2021/10/02 08:11:14;;;;;;;10.43;6.37;;;10.70;99.90;;;;;;4982572;28;20463;-59
2021/10/02 08:13:40;;;;;;;9.27;8.03;;;10.80;99.90;;;;;;4967850;28;20506;-59
2021/10/02 08:16:07;;;;;;;14.63;8.07;;;10.90;99.90;;;;;;4987367;28;20181;-59
2021/10/02 08:18:38;;;;;;;10.87;7.97;;;11.00;99.90;;;;;;4985514;28;20193;-59
2021/10/02 08:21:05;;;;;;;8.93;6.60;;;11.10;99.90;;;;;;4984846;28;20546;-58
2021/10/02 08:23:35;;;;;;;12.13;7.90;;;11.20;99.90;;;;;;4982872;28;20445;-59
2021/10/02 08:26:02;;;;;;;13.60;8.30;;;11.40;99.90;;;;;;4979456;28;20456;-59
2021/10/02 08:28:30;;;;;;;12.00;8.83;;;11.60;99.90;;;;;;4980878;28;20526;-61
2021/10/02 08:30:58;;;;;;;12.10;8.43;;;11.70;99.90;;;;;;4983541;28;20551;-60
2021/10/02 08:33:24;;;;;;;14.80;8.70;;;11.80;99.90;;;;;;4957498;28;20463;-60
2021/10/02 08:35:49;;;;;;;15.70;8.10;;;11.80;99.90;;;;;;4988462;28;20432;-60
2021/10/02 08:38:15;;;;;;;17.23;8.70;;;11.80;99.90;;;;;;4991111;28;20555;-60
2021/10/02 08:40:42;;;;;;;13.37;9.30;;;11.90;99.90;;;;;;4994665;28;20176;-60
2021/10/02 08:43:13;;;;;;;11.53;8.33;;;12.00;99.90;;;;;;4985635;28;20178;-59
2021/10/02 08:45:39;;;;;;;15.60;9.30;;;12.20;99.90;;;;;;4997225;28;20481;-60
2021/10/02 08:48:11;;;;;;;17.93;9.77;;;12.30;99.90;;;;;;4994784;28;20448;-60
2021/10/02 08:50:40;;;;;;;15.50;8.13;;;12.50;99.90;;;;;;4996842;28;20463;-58
2021/10/02 08:53:06;;;;;;;12.00;8.20;;;12.60;99.90;;;;;;4990302;28;20412;-60
2021/10/02 08:55:34;;;;;;;13.70;9.70;;;12.80;99.90;;;;;;4991112;28;20424;-60
2021/10/02 08:58:01;;;;;;;13.10;8.60;;;13.00;99.90;;;;;;4987801;28;20436;-60
2021/10/02 09:00:27;;;;;;;16.00;9.20;;;13.10;99.90;;;;;;4993294;28;20444;-60
2021/10/02 09:02:53;;;;;;;13.77;8.40;;;13.30;99.90;;;;;;4980169;28;20425;-59
2021/10/02 09:05:21;;;;;;;12.50;8.77;;;13.50;99.90;;;;;;4980959;28;20812;-59
2021/10/02 09:07:54;;;;;;;15.90;8.60;;;13.70;99.90;;;;;;4991378;28;20447;-62
2021/10/02 09:10:21;;;;;;;12.77;8.43;;;14.00;99.90;;;;;;4990443;28;20491;-61
2021/10/02 09:12:48;;;;;;;16.23;8.77;;;14.10;99.90;;;;;;4992977;28;20434;-59
2021/10/02 09:15:16;;;;;;;15.67;8.30;;;14.30;99.90;;;;;;4991826;28;20460;-61
2021/10/02 09:17:44;;;;;;;11.90;7.80;;;14.50;99.90;;;;;;4992401;28;21026;-60
2021/10/02 09:20:11;;;;;;;12.80;7.53;;;14.70;99.90;;;;;;4989722;28;20446;-60
2021/10/02 09:22:38;;;;;;;12.40;7.10;;;14.90;99.90;;;;;;4990200;28;20514;-59
2021/10/02 09:25:10;;;;;;;10.13;7.07;;;15.00;99.90;;;;;;4982836;28;20436;-60
2021/10/02 09:27:36;;;;;;;11.83;7.87;;;15.20;99.90;;;;;;4994059;28;20519;-60
2021/10/02 09:30:11;;;;;;;12.10;8.23;;;15.40;99.90;;;;;;4994820;28;20448;-60
2021/10/02 09:32:45;;;;;;;12.43;7.47;;;15.60;99.90;;;;;;4996235;28;20954;-60
2021/10/02 09:35:12;;;;;;;12.90;8.10;;;15.80;99.90;;;;;;4982000;28;20432;-60
2021/10/02 09:37:40;;;;;;;10.23;7.03;;;15.90;99.90;;;;;;4989544;28;20433;-59
2021/10/02 09:40:17;;;;;;;12.27;7.53;;;16.10;99.90;;;;;;4993566;28;20503;-60
2021/10/02 09:42:54;;;;;;;14.40;7.93;;;16.30;99.90;;;;;;4977308;28;20471;-61
2021/10/02 09:45:21;;;;;;;13.10;8.03;;;16.50;99.90;;;;;;4977122;28;20574;-60
2021/10/02 09:47:53;;;;;;;11.60;7.20;;;16.60;99.90;;;;;;4990760;28;20452;-60
2021/10/02 09:50:22;;;;;;;15.30;7.80;;;16.70;99.90;;;;;;4989939;28;20911;-60
2021/10/02 09:52:54;;;;;;;19.03;8.27;;;16.80;99.90;;;;;;4992699;28;20526;-60
2021/10/02 09:55:47;;;;;;;12.17;7.77;;;16.90;99.90;;;;;;4990342;28;20412;-60
2021/10/02 09:58:28;;;;;;;13.90;6.97;;;17.00;99.90;;;;;;4995127;28;20423;-60
2021/10/02 10:00:54;;;;;;;11.23;7.40;;;17.20;99.90;;;;;;4984202;28;20442;-59
2021/10/02 10:03:20;;;;;;;13.03;7.33;;;17.40;99.90;;;;;;4982768;28;20432;-60
2021/10/02 10:05:48;;;;;;;11.73;7.40;;;17.50;99.90;;;;;;4988860;28;20949;-60
2021/10/02 10:08:21;;;;;;;10.73;7.40;;;17.60;99.10;;;;;;4972418;28;20759;-61
2021/10/02 10:10:47;;;;;;;20.80;7.50;;;17.70;99.20;;;;;;4991409;28;21004;-60
2021/10/02 10:13:20;;;;;;;12.40;7.83;;;17.90;98.30;;;;;;4989640;28;20498;-60
2021/10/02 10:15:54;;;;;;;10.17;6.90;;;18.00;98.80;;;;;;4964138;28;20526;-61
2021/10/02 10:18:29;;;;;;;12.73;7.00;;;18.10;98.40;;;;;;4990040;28;20516;-60
2021/10/02 10:20:57;;;;;;;11.67;7.50;;;18.20;95.20;;;;;;4976726;28;20483;-61
2021/10/02 10:23:41;;;;;;;9.40;5.83;;;18.30;95.90;;;;;;4995650;28;20571;-60
2021/10/02 10:26:09;;;;;;;8.00;5.87;;;18.40;93.70;;;;;;4989386;28;20821;-60
2021/10/02 10:28:38;;;;;;;10.13;5.90;;;18.40;92.40;;;;;;4990485;28;20453;-60
2021/10/02 10:31:17;;;;;;;9.33;5.57;;;18.50;91.30;;;;;;4998683;28;20584;-60
2021/10/02 10:33:48;;;;;;;11.80;6.07;;;18.50;90.80;;;;;;4979834;28;20734;-60
2021/10/02 10:36:16;;;;;;;8.67;6.20;;;18.60;90.90;;;;;;4989388;28;20804;-60
2021/10/02 10:38:43;;;;;;;8.50;5.57;;;18.80;92.40;;;;;;4994478;28;20518;-60
2021/10/02 10:41:11;;;;;;;10.70;5.53;;;19.00;88.90;;;;;;4993725;28;20407;-60
2021/10/02 10:43:37;;;;;;;9.97;5.53;;;19.10;82.60;;;;;;4993158;28;20439;-60
2021/10/02 10:46:10;;;;;;;8.87;6.30;;;19.20;80.80;;;;;;4992702;28;20428;-60
2021/10/02 10:48:36;;;;;;;8.53;5.53;;;19.30;79.40;;;;;;4961749;28;20457;-60
2021/10/02 10:51:06;;;;;;;7.60;5.43;;;19.40;78.00;;;;;;4985363;28;20471;-60
2021/10/02 10:53:47;;;;;;;9.77;5.50;;;19.50;77.70;;;;;;5001555;28;20448;-60
2021/10/02 10:56:15;;;;;;;7.03;5.53;;;19.60;78.60;;;;;;4989956;28;20423;-59
2021/10/02 10:58:41;;;;;;;11.60;6.40;;;19.80;74.80;;;;;;4978026;28;20982;-60
2021/10/02 11:01:11;;;;;;;13.33;5.90;;;19.90;74.80;;;;;;4987509;28;20424;-60
2021/10/02 11:03:41;;;;;;;13.83;6.40;;;20.00;74.30;;;;;;4977202;28;20571;-60
2021/10/02 11:06:14;;;;;;;7.70;5.63;;;20.20;73.20;;;;;;4994477;28;20824;-59
2021/10/02 11:09:37;;;;;;;11.20;6.57;;;20.40;69.10;;;;;;4975378;28;20990;-60
2021/10/02 11:12:05;;;;;;;9.60;5.67;;;20.60;66.30;;;;;;4919414;29;20511;-60
2021/10/02 11:14:46;;;;;;;10.57;5.97;;;20.80;68.90;;;;;;4914163;29;20439;-60
2021/10/02 11:17:14;;;;;;;9.40;6.47;;;21.10;66.90;;;;;;4951853;28;20446;-60
2021/10/02 11:19:43;;;;;;;8.67;6.27;;;21.20;67.70;;;;;;4990861;28;20524;-60
2021/10/02 11:22:42;;;;;;;14.00;6.77;;;21.40;67.60;;;;;;4991365;28;20730;-61
2021/10/02 11:25:23;;;;;;;8.43;6.07;;;21.80;65.20;;;;;;4989214;28;20417;-61
2021/10/02 11:27:50;;;;;;;11.87;6.33;;;22.30;64.30;;;;;;4987078;28;20454;-61
2021/10/02 11:30:19;;;;;;;9.47;5.90;;;22.80;62.40;;;;;;4971918;28;20476;-61
2021/10/02 11:32:45;;;;;;;8.50;5.97;;;23.20;61.00;;;;;;4991102;28;20786;-61
2021/10/02 11:35:15;;;;;;;8.73;5.20;;;23.40;57.30;;;;;;4991924;28;20522;-61
2021/10/02 11:37:48;;;;;;;8.83;5.53;;;23.50;56.60;;;;;;4993455;28;20459;-62
2021/10/02 11:40:32;;;;;;;8.67;5.13;;;23.40;56.80;;;;;;4973491;28;20421;-60
2021/10/02 11:43:13;;;;;;;8.70;5.50;;;23.10;55.50;;;;;;4974831;28;20839;-61
2021/10/02 11:45:39;;;;;;;7.53;5.10;;;22.90;55.20;;;;;;4963872;28;21271;-60
2021/10/02 11:48:12;;;;;;;9.00;5.30;;;22.70;55.80;;;;;;4990562;28;20728;-61
2021/10/02 11:50:39;;;;;;;6.20;5.10;;;22.60;56.70;;;;;;4992918;28;20551;-61
2021/10/02 11:53:04;;;;;;;8.23;5.43;;;22.70;57.90;;;;;;4991495;28;20905;-62
2021/10/02 11:55:33;;;;;;;10.60;5.50;;;23.00;59.40;;;;;;4963414;28;20484;-61
2021/10/02 11:58:07;;;;;;;12.27;6.00;;;23.20;57.70;;;;;;4971893;28;20616;-61
2021/10/02 12:01:00;;;;;;;6.33;5.00;;;23.10;56.40;;;;;;4991293;28;20445;-62
2021/10/02 12:03:30;;;;;;;7.27;5.60;;;23.00;57.00;;;;;;4985141;28;20979;-61
2021/10/02 12:05:57;;;;;;;6.87;5.60;;;23.10;56.70;;;;;;4973242;28;20432;-60
2021/10/02 12:08:23;;;;;;;7.23;5.33;;;23.00;56.50;;;;;;4989258;28;20531;-60
2021/10/02 12:10:52;;;;;;;7.10;5.63;;;22.70;56.60;;;;;;4973405;28;21076;-60
2021/10/02 12:13:33;;;;;;;6.40;5.50;;;22.30;56.70;;;;;;4990686;28;20185;-60
2021/10/02 12:16:07;;;;;;;9.37;5.10;;;21.90;57.10;;;;;;4989442;28;20444;-61
2021/10/02 12:18:56;;;;;;;10.43;6.33;;;21.80;57.90;;;;;;4983693;28;20436;-60
2021/10/02 12:21:32;;;;;;;7.10;5.30;;;21.90;58.80;;;;;;4983797;28;20437;-59
2021/10/02 12:24:20;;;;;;;8.53;4.83;;;21.90;58.50;;;;;;4987302;28;20939;-60
2021/10/02 12:26:52;;;;;;;6.43;4.90;;;21.70;58.20;;;;;;4991500;28;21069;-61
2021/10/02 12:29:22;;;;;;;5.10;4.50;;;21.60;57.40;;;;;;4988782;28;20456;-60
2021/10/02 12:31:56;;;;;;;5.23;4.73;;;21.40;57.90;;;;;;4991012;28;20447;-60
2021/10/02 12:34:27;;;;;;;10.03;5.50;;;21.40;58.80;;;;;;5001913;28;20410;-60
2021/10/02 12:37:08;;;;;;;6.43;4.80;;;21.50;59.30;;;;;;5002502;28;20483;-60
2021/10/02 12:39:55;;;;;;;9.03;5.63;;;21.70;58.70;;;;;;4996798;28;20529;-58
2021/10/02 12:42:37;;;;;;;7.63;5.50;;;21.90;58.30;;;;;;4988882;28;20797;-60
2021/10/02 12:45:14;;;;;;;7.50;5.40;;;22.20;58.40;;;;;;4986403;28;20420;-60
2021/10/02 12:47:44;;;;;;;12.37;5.47;;;22.40;58.60;;;;;;4989855;28;20928;-60
2021/10/02 12:50:14;;;;;;;6.17;5.03;;;22.50;57.10;;;;;;4993094;28;20971;-60
2021/10/02 12:52:40;;;;;;;10.47;6.30;;;22.70;57.40;;;;;;4987069;28;20444;-60
2021/10/02 12:55:11;;;;;;;10.53;5.90;;;22.90;57.50;;;;;;4990544;28;20519;-61
2021/10/02 12:57:37;;;;;;;7.17;5.50;;;23.00;56.50;;;;;;4994129;28;20425;-60
2021/10/02 13:00:09;;;;;;;7.13;5.80;;;23.00;57.20;;;;;;4988546;28;20451;-61
2021/10/02 13:02:44;;;;;;;5.97;5.03;;;22.90;55.80;;;;;;4973907;28;20769;-61
2021/10/02 13:05:10;;;;;;;7.20;5.70;;;22.70;55.70;;;;;;4984111;28;20432;-57
2021/10/02 13:07:40;;;;;;;9.90;5.80;;;22.50;56.50;;;;;;4982058;28;20869;-58
2021/10/02 13:10:06;;;;;;;8.30;5.63;;;22.40;55.90;;;;;;4985221;28;20459;-58
2021/10/02 13:12:55;;;;;;;11.00;5.80;;;22.10;56.20;;;;;;4985004;28;20436;-57
2021/10/02 13:15:37;;;;;;;14.20;6.27;;;21.90;56.80;;;;;;5095998;27;21129;-61
2021/10/02 13:18:02;;;;;;;9.53;5.63;;;21.60;57.80;;;;;;5095371;28;20570;-60
2021/10/02 13:20:30;;;;;;;12.10;5.37;;;21.40;59.10;;;;;;5089225;28;20912;-57
2021/10/02 13:23:01;;;;;;;11.67;5.77;;;21.40;60.20;;;;;;5086797;28;20192;-58
2021/10/02 13:25:29;;;;;;;7.73;5.27;;;21.90;60.10;;;;;;5086558;28;20435;-59
2021/10/02 13:27:59;;;;;;;11.07;5.80;;;22.40;59.10;;;;;;5082235;28;20853;-57
2021/10/02 13:30:30;;;;;;;11.03;5.07;;;22.90;58.70;;;;;;5092556;28;20435;-57
2021/10/02 13:32:55;;;;;;;7.67;5.70;;;23.20;56.70;;;;;;5087664;28;20419;-58
2021/10/02 13:35:22;;;;;;;7.07;5.53;;;23.60;57.10;;;;;;5094167;28;20431;-58
2021/10/02 13:37:48;;;;;;;8.37;5.50;;;23.90;55.10;;;;;;5092277;28;20650;-59
2021/10/02 13:40:38;;;;;;;7.03;5.33;;;24.10;53.70;;;;;;5091965;28;20468;-57
2021/10/02 13:43:09;;;;;;;6.37;5.00;;;24.30;52.70;;;;;;5096759;28;20226;-58
2021/10/02 13:45:39;;;;;;;13.77;5.47;;;24.40;52.50;;;;;;5087190;28;20426;-58
2021/10/02 13:48:08;;;;;;;6.10;4.87;;;24.50;52.40;;;;;;5098551;28;20501;-59
2021/10/02 13:50:36;;;;;;;9.33;5.87;;;24.50;52.00;;;;;;5087789;28;20428;-58
2021/10/02 13:53:02;;;;;;;7.63;5.50;;;24.40;51.30;;;;;;5100703;28;20985;-58